Aérodrome :
LOGIN :

S'inscrire | Disclaimer

   EN    FR    IT 

 










Légende :    VFR   VFR Marginal   IFR   IFR Intensif   IFR Très Intensif
Visi : 
Plafond : 
>= 8 km
>= 3000ft
5 à 8 km
1000 à 3000 ft
1500m à 5 km
500 à 1000 ft
800 à 1500m
200 à 500 ft
< 800m
< 200 ft
Symboles :   Orages  Brouillard  Fortes neiges  Fortes précipitations  Vent > 20 kt
SIGMETs :   Divers  Orages  Givrage  Turbulence  Onde Orograph.  Cendres Volcan.







- Altitude de l'aérodrome : 788 ft
- Code IATA : DCM
- Voir les cartes d'approche


LFCK - Castres-Mazamet

DERNIER METAR :
  • 261830Z AUTO 13027KT 090V150 CAVOK 31/12 Q1018 BECMG 13026G38KT

METARs EXPIRÉS :
  • 261800Z AUTO 13024G38KT CAVOK 32/12 Q1018 NOSIG
  • 261730Z AUTO 13026G37KT CAVOK 32/12 Q1017 NOSIG
  • 261700Z AUTO 12027G37KT CAVOK 33/13 Q1017 NOSIG
  • 261630Z AUTO 13027G40KT 8000 NSC 33/12 Q1017 NOSIG
  • 261600Z AUTO 13028KT 8000 NSC 34/11 Q1018 BECMG 12030G42KT
  • 261530Z AUTO 13028KT 7000 NSC 34/11 Q1018 BECMG 12030G42KT

TAF TAF LFCK
Valide du 26 à 18h jusqu'au 27 à 03h UTC


261700Z 2618/2703 13026G38KT CAVOK
Pas de NOTAMs connus pour ce terrain.



MET'MAP, la Météo Aéronautique d'un coup d'oeil ! - Copyright ORBIFLY Décembre 2007 - Disclaimer

ORBIFLY MET'MAP TEAM :

Programmation & Développement : Alexandra Zaïnal
Conception & Développement : Baudouin d'Aumeries
Co-Programmation & Développement : Marc-Olivier Méhu
Soutien technique & logistique : Manuel Goepfert

Contact : metmap@orbifly.com




SOURCES & CREDITS :

   NOAA